Time;durP1;ratioP1;P1;durP2;ratioP2;P2;SDS_P1;SDS_P2;PMS_P1;PMS_P2;Temp;Humidity;BMP_temperature;BMP_pressure;BME280_temperature;BME280_humidity;BME280_pressure;Samples;Min_cycle;Max_cycle;Signal;HPM_P1;HPM_P2
2022/09/01 00:02:14;;;;;;;3.93;0.90;;;14.50;80.30;;;;;;4910516;28;20039;-68
2022/09/01 00:04:43;;;;;;;2.53;0.93;;;14.60;80.00;;;;;;4927853;29;20131;-68
2022/09/01 00:07:10;;;;;;;4.57;1.30;;;14.60;79.90;;;;;;4935949;29;20795;-68
2022/09/01 00:09:37;;;;;;;2.07;0.80;;;14.60;79.60;;;;;;4934394;29;20290;-68
2022/09/01 00:12:05;;;;;;;3.17;1.20;;;14.60;79.40;;;;;;4916268;29;20818;-68
2022/09/01 00:14:34;;;;;;;2.67;1.00;;;14.60;79.40;;;;;;4912783;29;20343;-68
2022/09/01 00:17:03;;;;;;;1.80;1.30;;;14.60;79.30;;;;;;4914607;28;20297;-68
2022/09/01 00:19:29;;;;;;;3.00;1.00;;;14.60;79.20;;;;;;4930462;29;20314;-68
2022/09/01 00:21:56;;;;;;;3.33;1.30;;;14.60;79.00;;;;;;4927588;28;20282;-68
2022/09/01 00:24:22;;;;;;;4.53;1.10;;;14.50;79.00;;;;;;4913280;29;20295;-68
2022/09/01 00:26:48;;;;;;;3.53;1.20;;;14.50;78.80;;;;;;4908318;29;20322;-68
2022/09/01 00:29:15;;;;;;;7.77;1.27;;;14.50;78.50;;;;;;4900879;29;20340;-69
2022/09/01 00:31:41;;;;;;;3.00;0.97;;;14.50;78.40;;;;;;4926306;29;20046;-68
2022/09/01 00:34:07;;;;;;;3.23;1.00;;;14.40;78.30;;;;;;4900498;29;20295;-68
2022/09/01 00:36:33;;;;;;;6.43;1.17;;;14.40;78.20;;;;;;4922074;29;20813;-68
2022/09/01 00:38:58;;;;;;;4.00;1.10;;;14.40;78.00;;;;;;4920716;29;20054;-68
2022/09/01 00:41:28;;;;;;;2.73;1.00;;;14.50;77.70;;;;;;4934741;29;20130;-68
2022/09/01 00:43:59;;;;;;;2.17;0.90;;;14.40;77.60;;;;;;4923277;29;20129;-68
2022/09/01 00:46:29;;;;;;;4.07;0.90;;;14.40;77.50;;;;;;4913143;29;20282;-68
2022/09/01 00:49:04;;;;;;;4.43;1.47;;;14.40;77.10;;;;;;4954464;28;20278;-68
2022/09/01 00:51:32;;;;;;;2.95;0.90;;;14.50;77.10;;;;;;4913785;29;20306;-68
2022/09/01 00:53:59;;;;;;;2.87;1.00;;;14.50;76.50;;;;;;4911366;28;20066;-68
2022/09/01 00:56:25;;;;;;;3.20;1.40;;;14.40;76.50;;;;;;4908887;29;20791;-68
2022/09/01 00:58:52;;;;;;;2.40;1.00;;;14.40;76.40;;;;;;4905092;29;20355;-68
2022/09/01 01:01:18;;;;;;;2.23;0.93;;;14.40;76.40;;;;;;4920663;29;20644;-68
2022/09/01 01:03:45;;;;;;;3.97;1.00;;;14.40;76.30;;;;;;4916812;29;20687;-68
2022/09/01 01:06:14;;;;;;;2.53;0.90;;;14.40;76.20;;;;;;4924906;29;20362;-68
2022/09/01 01:08:57;;;;;;;2.00;1.00;;;14.40;76.20;;;;;;4922073;29;20344;-68
2022/09/01 01:11:25;;;;;;;3.70;1.40;;;14.40;76.00;;;;;;4923670;29;20807;-68
2022/09/01 01:14:09;;;;;;;3.30;1.20;;;14.40;75.80;;;;;;4933294;29;20314;-68
2022/09/01 01:16:35;;;;;;;6.40;1.53;;;14.40;75.90;;;;;;4926044;29;20414;-68
2022/09/01 01:19:01;;;;;;;2.80;1.37;;;14.30;75.90;;;;;;4907945;29;20314;-68
2022/09/01 01:24:33;;;;;;;2.27;1.10;;;14.20;76.10;;;;;;4923062;29;20697;-68
2022/09/01 01:27:00;;;;;;;3.07;1.20;;;14.20;76.40;;;;;;4938359;29;20366;-68
2022/09/01 01:29:37;;;;;;;3.57;1.30;;;14.10;76.30;;;;;;4935689;29;20865;-68
2022/09/01 01:32:11;;;;;;;1.37;1.03;;;14.10;76.30;;;;;;4925492;29;20284;-68
2022/09/01 01:34:42;;;;;;;2.35;1.25;;;14.10;76.30;;;;;;4898491;29;20291;-68
2022/09/01 01:37:09;;;;;;;3.27;1.40;;;14.00;76.10;;;;;;4913590;29;20058;-68
2022/09/01 01:39:39;;;;;;;1.70;0.90;;;14.00;76.30;;;;;;4906995;29;20308;-68
2022/09/01 01:42:08;;;;;;;2.53;1.10;;;14.00;76.20;;;;;;4909925;29;20291;-68
2022/09/01 01:44:36;;;;;;;2.13;1.30;;;13.90;76.10;;;;;;4896237;29;20288;-68
2022/09/01 01:47:07;;;;;;;2.53;1.20;;;13.90;76.10;;;;;;4931863;29;20303;-68
2022/09/01 01:49:35;;;;;;;3.53;1.37;;;14.00;75.80;;;;;;4911735;29;20304;-68
2022/09/01 01:52:01;;;;;;;1.93;1.37;;;13.90;75.80;;;;;;4910054;29;20312;-68
2022/09/01 01:54:30;;;;;;;5.23;1.93;;;13.90;75.90;;;;;;4909873;29;20626;-68
2022/09/01 01:56:56;;;;;;;4.50;1.37;;;13.90;76.00;;;;;;4908152;29;20909;-68
2022/09/01 01:59:23;;;;;;;3.90;1.43;;;13.80;75.90;;;;;;4924295;29;20619;-68
2022/09/01 02:01:50;;;;;;;3.90;1.30;;;13.80;76.00;;;;;;4927774;29;20354;-68
2022/09/01 02:04:17;;;;;;;3.23;1.30;;;13.80;75.80;;;;;;4913741;29;20283;-68
2022/09/01 02:06:46;;;;;;;2.33;1.30;;;13.70;75.90;;;;;;4945673;28;20291;-68
2022/09/01 02:09:14;;;;;;;2.73;1.10;;;13.70;75.80;;;;;;4928338;29;20306;-68
2022/09/01 02:11:40;;;;;;;3.30;1.10;;;13.70;76.00;;;;;;4921533;29;20288;-68
2022/09/01 02:14:08;;;;;;;2.93;1.50;;;13.70;75.90;;;;;;4946914;28;20283;-68
2022/09/01 02:16:35;;;;;;;1.83;1.20;;;13.60;75.80;;;;;;4929890;29;20863;-68
2022/09/01 02:19:02;;;;;;;2.50;1.17;;;13.70;75.70;;;;;;4920717;29;20300;-68
2022/09/01 02:21:28;;;;;;;3.70;1.20;;;13.60;75.70;;;;;;4932202;29;20386;-68
2022/09/01 02:24:00;;;;;;;2.43;1.40;;;13.50;75.80;;;;;;4915264;29;20327;-68
2022/09/01 02:26:46;;;;;;;3.30;1.27;;;13.50;75.90;;;;;;4922275;29;20039;-68
2022/09/01 02:29:17;;;;;;;4.30;1.80;;;13.50;76.10;;;;;;4912137;29;20299;-68
2022/09/01 02:31:45;;;;;;;3.53;1.30;;;13.40;76.00;;;;;;4914711;29;20421;-68
2022/09/01 02:34:12;;;;;;;2.07;1.37;;;13.50;76.00;;;;;;4904615;29;20300;-68
2022/09/01 02:36:50;;;;;;;2.43;1.53;;;13.40;75.80;;;;;;4937955;29;20296;-68
2022/09/01 02:39:28;;;;;;;2.33;1.17;;;13.40;76.00;;;;;;4929974;29;20329;-68
2022/09/01 02:41:55;;;;;;;2.60;1.33;;;13.30;76.10;;;;;;4926239;29;20406;-68
2022/09/01 02:44:21;;;;;;;3.30;1.20;;;13.30;76.00;;;;;;4926408;29;20286;-68
2022/09/01 02:46:49;;;;;;;1.83;1.20;;;13.30;76.00;;;;;;4919452;29;20728;-68
2022/09/01 02:49:23;;;;;;;2.50;1.10;;;13.30;76.10;;;;;;4928441;29;20299;-68
2022/09/01 02:51:52;;;;;;;4.13;1.20;;;13.20;76.30;;;;;;4921850;29;20303;-68
2022/09/01 02:54:21;;;;;;;2.10;1.30;;;13.20;76.20;;;;;;4936159;29;20089;-68
2022/09/01 02:56:47;;;;;;;4.60;1.30;;;13.20;76.30;;;;;;4933331;29;20625;-68
2022/09/01 02:59:20;;;;;;;2.10;1.40;;;13.20;76.50;;;;;;4921197;29;20316;-68
2022/09/01 03:01:52;;;;;;;2.43;1.37;;;13.20;76.50;;;;;;4893184;29;20299;-68
2022/09/01 03:04:18;;;;;;;2.17;1.20;;;13.10;76.70;;;;;;4928512;29;20383;-68
2022/09/01 03:06:45;;;;;;;2.23;1.20;;;13.10;76.50;;;;;;4889449;29;20664;-68
2022/09/01 03:09:14;;;;;;;3.17;1.60;;;13.10;76.60;;;;;;4901011;29;20292;-68
2022/09/01 03:11:43;;;;;;;2.33;1.17;;;13.10;76.50;;;;;;4917942;29;20302;-68
2022/09/01 03:14:09;;;;;;;1.77;1.40;;;13.10;76.50;;;;;;4922946;29;20788;-68
2022/09/01 03:16:36;;;;;;;1.60;1.20;;;13.10;76.50;;;;;;4945489;28;20330;-68
2022/09/01 03:19:06;;;;;;;2.27;1.37;;;13.10;76.60;;;;;;4912206;29;20314;-68
2022/09/01 03:21:32;;;;;;;4.10;1.50;;;13.10;76.70;;;;;;4907621;29;20817;-68
2022/09/01 03:24:00;;;;;;;1.87;1.27;;;13.00;76.60;;;;;;4929541;29;20342;-68
2022/09/01 03:26:26;;;;;;;2.73;1.20;;;13.00;76.50;;;;;;4916273;29;20473;-68
2022/09/01 03:28:52;;;;;;;4.23;1.33;;;13.00;76.70;;;;;;4929570;29;20291;-68
2022/09/01 03:31:19;;;;;;;2.30;1.43;;;13.00;76.70;;;;;;4926973;29;20039;-68
2022/09/01 03:33:45;;;;;;;2.50;1.33;;;13.00;76.80;;;;;;4920861;29;20043;-68
2022/09/01 03:36:18;;;;;;;3.03;1.47;;;13.00;76.80;;;;;;4904774;29;20352;-68
2022/09/01 03:38:48;;;;;;;2.50;1.53;;;13.00;76.80;;;;;;4929820;29;20840;-68
2022/09/01 03:41:16;;;;;;;3.20;1.50;;;13.00;77.00;;;;;;4931917;29;20292;-68
2022/09/01 03:43:43;;;;;;;2.90;1.67;;;12.90;77.30;;;;;;4927964;29;20295;-68
2022/09/01 03:46:10;;;;;;;2.90;1.53;;;12.90;77.50;;;;;;4896839;29;20908;-68
2022/09/01 03:48:38;;;;;;;2.20;1.40;;;12.90;77.40;;;;;;4911891;29;20688;-68
2022/09/01 03:51:05;;;;;;;3.10;1.67;;;12.90;77.60;;;;;;4926798;29;20727;-68
2022/09/01 03:53:36;;;;;;;3.33;1.70;;;12.90;77.60;;;;;;4919802;29;20299;-68
2022/09/01 03:56:03;;;;;;;2.17;1.50;;;12.80;77.90;;;;;;4929391;29;20622;-68
2022/09/01 03:58:28;;;;;;;2.90;1.93;;;12.80;77.90;;;;;;4909375;28;20467;-68
2022/09/01 04:00:59;;;;;;;2.13;1.53;;;12.80;78.00;;;;;;4900312;29;20304;-68
2022/09/01 04:03:28;;;;;;;4.50;1.80;;;12.80;78.10;;;;;;4919551;28;20111;-68
2022/09/01 04:05:54;;;;;;;3.73;1.80;;;12.80;78.10;;;;;;4915159;29;20299;-68
2022/09/01 04:08:26;;;;;;;3.50;1.63;;;12.80;78.00;;;;;;4919256;28;20776;-68
2022/09/01 04:10:53;;;;;;;2.70;1.80;;;12.80;78.00;;;;;;4913309;29;20051;-68
2022/09/01 04:13:25;;;;;;;2.30;1.70;;;12.70;78.20;;;;;;4914533;28;20295;-68
2022/09/01 04:15:51;;;;;;;2.73;2.07;;;12.70;78.20;;;;;;4934477;29;20307;-68
2022/09/01 04:18:22;;;;;;;2.97;1.73;;;12.70;78.30;;;;;;4920194;28;20352;-68
2022/09/01 04:20:55;;;;;;;3.63;1.97;;;12.60;78.40;;;;;;4927138;29;20106;-68
2022/09/01 04:23:26;;;;;;;4.57;1.85;;;12.70;78.40;;;;;;4933197;29;20783;-68
2022/09/01 04:26:13;;;;;;;4.10;1.70;;;12.60;78.40;;;;;;4931821;29;20957;-68
2022/09/01 04:28:48;;;;;;;4.20;2.10;;;12.60;78.50;;;;;;4931339;29;20085;-68
2022/09/01 04:31:20;;;;;;;2.63;2.05;;;12.60;78.60;;;;;;4933649;28;20290;-68
2022/09/01 04:33:51;;;;;;;4.47;1.93;;;12.70;78.40;;;;;;4923078;29;20448;-68
2022/09/01 04:36:21;;;;;;;4.57;1.93;;;12.70;78.30;;;;;;4914453;29;20283;-68
2022/09/01 04:38:53;;;;;;;2.60;1.90;;;12.80;78.40;;;;;;4924621;29;20363;-68
2022/09/01 04:41:20;;;;;;;2.43;1.70;;;12.80;78.30;;;;;;4913326;29;20800;-68
2022/09/01 04:43:49;;;;;;;2.20;1.80;;;12.80;78.10;;;;;;4935392;28;20292;-68
2022/09/01 04:46:15;;;;;;;3.23;1.57;;;12.80;77.90;;;;;;4924891;29;20311;-68
2022/09/01 04:48:44;;;;;;;2.33;1.80;;;12.80;77.90;;;;;;4915610;29;20294;-68
2022/09/01 04:51:14;;;;;;;2.53;1.90;;;12.80;78.10;;;;;;4942320;28;20866;-68
2022/09/01 04:53:47;;;;;;;2.60;2.10;;;12.70;78.10;;;;;;4917196;28;20389;-68
2022/09/01 04:56:18;;;;;;;4.57;2.20;;;12.70;78.10;;;;;;4929786;29;20303;-68
2022/09/01 04:58:54;;;;;;;2.80;2.07;;;12.80;78.00;;;;;;4919871;28;20385;-68
2022/09/01 05:01:26;;;;;;;2.53;1.73;;;12.80;77.90;;;;;;4924610;29;20341;-68
2022/09/01 05:04:00;;;;;;;4.70;2.40;;;12.80;78.00;;;;;;4947628;28;20301;-68
2022/09/01 05:06:27;;;;;;;3.47;1.97;;;12.80;78.00;;;;;;4906564;29;20347;-68
2022/09/01 05:08:55;;;;;;;3.55;2.10;;;12.80;77.90;;;;;;4916527;29;20302;-68
2022/09/01 05:11:22;;;;;;;2.27;1.70;;;12.90;77.80;;;;;;4899095;29;20082;-67
2022/09/01 05:13:49;;;;;;;3.83;1.90;;;12.90;77.80;;;;;;4912367;29;20290;-67
2022/09/01 05:16:20;;;;;;;3.87;2.00;;;12.90;77.90;;;;;;4910124;28;20333;-68
2022/09/01 05:18:48;;;;;;;2.40;1.77;;;12.90;77.80;;;;;;4907353;29;20316;-68
2022/09/01 05:21:21;;;;;;;2.83;1.50;;;12.90;77.90;;;;;;4925509;28;20375;-67
2022/09/01 05:23:50;;;;;;;2.60;1.93;;;12.90;77.70;;;;;;4925892;29;20350;-67
2022/09/01 05:26:25;;;;;;;2.57;1.87;;;12.90;77.60;;;;;;4915309;28;20313;-68
2022/09/01 05:28:54;;;;;;;2.27;1.70;;;12.90;77.60;;;;;;4912886;29;20287;-68
2022/09/01 05:31:21;;;;;;;2.40;1.90;;;12.90;77.70;;;;;;4942390;29;20639;-67
2022/09/01 05:33:49;;;;;;;5.13;1.67;;;12.90;77.90;;;;;;4934303;29;20743;-67
2022/09/01 05:36:21;;;;;;;2.80;1.90;;;12.90;77.90;;;;;;4936407;28;20805;-67
2022/09/01 05:38:48;;;;;;;3.53;1.90;;;13.00;77.90;;;;;;4937960;29;20381;-67
2022/09/01 05:41:16;;;;;;;4.60;1.90;;;13.10;77.60;;;;;;4916279;29;20286;-67
2022/09/01 05:43:48;;;;;;;2.97;2.07;;;13.10;77.60;;;;;;4918451;29;20311;-68
2022/09/01 05:46:19;;;;;;;3.93;1.77;;;13.10;77.50;;;;;;4956412;28;20353;-67
2022/09/01 05:48:48;;;;;;;2.80;1.97;;;13.20;77.50;;;;;;4905213;29;20284;-67
2022/09/01 05:51:21;;;;;;;3.20;2.13;;;13.20;77.40;;;;;;4923966;29;20382;-67
2022/09/01 05:53:50;;;;;;;2.57;1.70;;;13.30;77.40;;;;;;4909515;28;20426;-67
2022/09/01 05:56:18;;;;;;;3.43;2.10;;;13.30;77.40;;;;;;4942182;28;20385;-67
2022/09/01 05:58:45;;;;;;;1.77;1.53;;;13.30;77.50;;;;;;4926278;28;20768;-67
2022/09/01 06:01:21;;;;;;;2.40;1.90;;;13.40;77.30;;;;;;4913941;29;20627;-67
2022/09/01 06:03:49;;;;;;;3.10;1.80;;;13.40;77.40;;;;;;4920017;29;20287;-68
2022/09/01 06:06:15;;;;;;;2.60;1.80;;;13.40;77.40;;;;;;4904905;29;20342;-68
2022/09/01 06:08:41;;;;;;;2.47;1.80;;;13.50;77.50;;;;;;4926494;29;20300;-68
2022/09/01 06:11:13;;;;;;;4.03;2.10;;;13.50;77.40;;;;;;4910752;29;20046;-68
2022/09/01 06:13:40;;;;;;;4.57;2.10;;;13.60;77.40;;;;;;4915824;29;20303;-68
2022/09/01 06:16:08;;;;;;;2.23;1.73;;;13.70;77.30;;;;;;4915570;29;20298;-68
2022/09/01 06:18:34;;;;;;;2.40;2.00;;;13.70;77.20;;;;;;4928985;28;20298;-68
2022/09/01 06:21:03;;;;;;;2.87;1.93;;;13.80;77.20;;;;;;4938249;29;20306;-68
2022/09/01 06:23:29;;;;;;;5.47;2.43;;;13.90;77.00;;;;;;4928329;29;20403;-68
2022/09/01 06:25:54;;;;;;;5.57;1.93;;;13.90;76.90;;;;;;4916326;29;20736;-68
2022/09/01 06:28:22;;;;;;;3.23;1.90;;;14.00;76.90;;;;;;4910574;29;20383;-68
2022/09/01 06:30:50;;;;;;;2.00;1.60;;;14.10;76.80;;;;;;4884022;29;20047;-68
2022/09/01 06:33:16;;;;;;;2.30;1.80;;;14.20;76.80;;;;;;4905466;29;20291;-68
2022/09/01 06:35:45;;;;;;;2.63;1.83;;;14.20;76.80;;;;;;4925963;28;20311;-68
2022/09/01 06:38:16;;;;;;;3.60;1.80;;;14.30;76.60;;;;;;4917389;29;20278;-68
2022/09/01 06:40:42;;;;;;;4.20;1.70;;;14.40;76.30;;;;;;4936966;28;20287;-68
2022/09/01 06:43:10;;;;;;;4.80;1.70;;;14.50;76.10;;;;;;4922726;29;20295;-68
2022/09/01 06:45:42;;;;;;;4.53;2.10;;;14.60;76.00;;;;;;4934716;28;20091;-68
2022/09/01 06:48:08;;;;;;;4.30;2.00;;;14.70;75.70;;;;;;4918071;29;20294;-68
2022/09/01 06:50:34;;;;;;;3.73;1.90;;;14.80;75.50;;;;;;4909617;29;20342;-68
2022/09/01 06:53:09;;;;;;;3.77;2.10;;;14.90;75.10;;;;;;4943282;28;20279;-68
2022/09/01 06:55:39;;;;;;;5.03;1.70;;;15.00;74.50;;;;;;4936179;28;20615;-68
2022/09/01 06:58:06;;;;;;;3.37;1.83;;;15.10;74.20;;;;;;4919862;28;20082;-68
2022/09/01 07:00:40;;;;;;;3.50;1.70;;;15.20;74.20;;;;;;4933095;29;20299;-68
2022/09/01 07:03:09;;;;;;;2.97;1.50;;;15.30;74.00;;;;;;4942020;29;20802;-68
2022/09/01 07:05:45;;;;;;;3.60;1.50;;;15.30;74.10;;;;;;4934607;29;20861;-68
2022/09/01 07:08:18;;;;;;;3.87;1.93;;;15.40;73.40;;;;;;4932999;29;20279;-68
2022/09/01 07:10:49;;;;;;;5.97;2.07;;;15.50;73.10;;;;;;4917098;29;20845;-68
2022/09/01 07:13:24;;;;;;;3.93;1.60;;;15.50;73.00;;;;;;4927035;28;20322;-68
2022/09/01 07:15:52;;;;;;;3.55;1.52;;;15.60;72.90;;;;;;4914412;28;20641;-68
2022/09/01 07:18:24;;;;;;;2.07;1.47;;;15.80;73.00;;;;;;4946812;28;20053;-68
2022/09/01 07:20:51;;;;;;;3.13;1.40;;;15.90;72.30;;;;;;4940659;28;20442;-68
2022/09/01 07:23:18;;;;;;;2.90;1.93;;;16.10;71.30;;;;;;4915113;29;20366;-68
2022/09/01 07:25:46;;;;;;;3.50;1.60;;;16.20;71.50;;;;;;4915253;29;20298;-68
2022/09/01 07:28:14;;;;;;;4.53;1.87;;;16.30;71.80;;;;;;4914758;29;20287;-68
2022/09/01 07:30:44;;;;;;;2.23;1.80;;;16.40;71.30;;;;;;4904013;29;20362;-68
2022/09/01 07:33:11;;;;;;;1.97;1.30;;;16.60;70.50;;;;;;4941565;28;20369;-68
2022/09/01 07:35:40;;;;;;;1.80;1.40;;;16.60;70.40;;;;;;4935546;29;20302;-68
2022/09/01 07:38:08;;;;;;;2.43;1.33;;;16.60;70.40;;;;;;4940705;29;20305;-68
2022/09/01 07:40:37;;;;;;;4.63;1.57;;;16.70;70.00;;;;;;4918258;29;20327;-68
2022/09/01 07:43:25;;;;;;;4.63;2.57;;;16.80;70.20;;;;;;4913000;29;20290;-68
2022/09/01 07:45:55;;;;;;;2.00;1.10;;;17.00;70.10;;;;;;4920016;29;20291;-68
2022/09/01 07:48:23;;;;;;;4.07;1.50;;;17.20;69.30;;;;;;4924958;28;20664;-68
2022/09/01 07:50:51;;;;;;;3.07;1.30;;;17.30;69.70;;;;;;4927316;29;20310;-68
2022/09/01 07:53:21;;;;;;;2.63;1.87;;;17.50;68.80;;;;;;4935984;29;20286;-68
2022/09/01 07:55:50;;;;;;;3.63;1.33;;;17.60;67.40;;;;;;4938885;28;20401;-68
2022/09/01 07:58:17;;;;;;;2.33;1.20;;;17.70;67.70;;;;;;4931654;29;20303;-68
2022/09/01 08:00:45;;;;;;;3.43;1.30;;;17.80;68.10;;;;;;4915053;29;20309;-68
2022/09/01 08:03:15;;;;;;;4.60;1.60;;;17.90;67.30;;;;;;4920984;29;20401;-68
2022/09/01 08:05:42;;;;;;;3.03;1.70;;;18.10;67.00;;;;;;4931144;28;20286;-68
2022/09/01 08:08:08;;;;;;;4.40;1.50;;;18.20;67.00;;;;;;4932641;28;20282;-68
2022/09/01 08:10:37;;;;;;;2.33;1.20;;;18.30;65.60;;;;;;4935969;29;20285;-68
2022/09/01 08:13:02;;;;;;;1.80;1.20;;;18.40;65.60;;;;;;4913802;28;20321;-66
2022/09/01 08:15:28;;;;;;;3.23;1.40;;;18.50;65.70;;;;;;4910280;29;20287;-66
2022/09/01 08:17:54;;;;;;;2.03;1.17;;;18.60;65.30;;;;;;4919844;29;20047;-66
2022/09/01 08:20:20;;;;;;;4.87;1.43;;;18.60;65.70;;;;;;4924884;29;20503;-66
2022/09/01 08:22:45;;;;;;;4.83;1.57;;;18.70;65.50;;;;;;4903567;29;20113;-66
2022/09/01 08:25:11;;;;;;;3.77;1.40;;;18.90;64.20;;;;;;4931203;29;20043;-66
2022/09/01 08:27:38;;;;;;;2.67;1.20;;;18.90;64.20;;;;;;4911248;29;20085;-66
2022/09/01 08:30:09;;;;;;;3.77;1.50;;;19.00;64.20;;;;;;4922628;29;20048;-66
2022/09/01 08:32:36;;;;;;;3.57;1.07;;;19.10;63.80;;;;;;4916334;28;20389;-66
2022/09/01 08:35:03;;;;;;;3.93;1.60;;;19.20;63.70;;;;;;4930729;29;20286;-66
2022/09/01 08:37:30;;;;;;;2.70;0.93;;;19.30;63.30;;;;;;4916307;28;20827;-69
2022/09/01 08:39:56;;;;;;;2.53;1.07;;;19.40;63.90;;;;;;4938029;29;20299;-67
2022/09/01 08:42:28;;;;;;;3.00;0.87;;;19.50;62.90;;;;;;4912716;28;20299;-67
2022/09/01 08:44:59;;;;;;;5.00;1.00;;;19.60;62.20;;;;;;4921328;29;20504;-67
2022/09/01 08:47:26;;;;;;;1.67;0.90;;;19.70;62.50;;;;;;4930105;28;20383;-67
2022/09/01 08:49:51;;;;;;;2.03;1.20;;;19.80;62.00;;;;;;4930366;29;20881;-67
2022/09/01 08:52:33;;;;;;;4.50;1.07;;;19.90;62.60;;;;;;4900444;28;20330;-67
2022/09/01 08:55:13;;;;;;;2.40;1.10;;;20.10;62.30;;;;;;4916414;29;20047;-67
2022/09/01 08:57:42;;;;;;;3.17;1.40;;;20.20;62.30;;;;;;4916827;29;20354;-67
2022/09/01 09:00:12;;;;;;;2.30;0.93;;;20.30;61.10;;;;;;4923351;28;20311;-67
2022/09/01 09:03:01;;;;;;;2.57;1.00;;;20.40;61.50;;;;;;4925599;29;20351;-67
2022/09/01 09:05:54;;;;;;;2.63;0.87;;;20.50;61.10;;;;;;4935172;29;20289;-67
2022/09/01 09:08:50;;;;;;;3.70;1.30;;;20.60;60.80;;;;;;4910312;28;20351;-67
2022/09/01 09:11:47;;;;;;;2.83;1.00;;;20.70;60.50;;;;;;4906437;28;20039;-67
2022/09/01 09:14:34;;;;;;;1.90;0.93;;;20.80;60.70;;;;;;4919305;28;20252;-67
2022/09/01 09:17:00;;;;;;;2.10;1.10;;;20.90;60.90;;;;;;4929276;28;20039;-67
2022/09/01 09:19:40;;;;;;;2.50;0.90;;;21.10;61.10;;;;;;4919395;28;20423;-67
2022/09/01 09:22:11;;;;;;;1.77;0.70;;;21.20;60.30;;;;;;4913424;28;20452;-67
2022/09/01 09:25:13;;;;;;;1.87;0.50;;;21.20;58.80;;;;;;4923243;28;20507;-67
2022/09/01 09:27:48;;;;;;;2.27;0.80;;;21.30;58.10;;;;;;4941866;28;20400;-67
2022/09/01 09:30:26;;;;;;;4.05;0.80;;;21.40;57.10;;;;;;4915412;28;20051;-68
2022/09/01 09:32:55;;;;;;;3.23;0.80;;;21.50;57.20;;;;;;4917497;28;20444;-67
2022/09/01 09:35:26;;;;;;;2.43;0.97;;;21.50;57.30;;;;;;4942609;28;20046;-68
2022/09/01 09:37:52;;;;;;;2.57;0.70;;;21.50;56.50;;;;;;4917545;29;20043;-67
2022/09/01 09:40:19;;;;;;;2.23;0.70;;;21.60;56.70;;;;;;4936703;28;20051;-67
2022/09/01 09:42:54;;;;;;;2.60;0.50;;;21.70;55.40;;;;;;4938502;28;20574;-67
2022/09/01 09:45:25;;;;;;;1.23;0.73;;;21.70;56.30;;;;;;4926676;29;20031;-68
2022/09/01 09:47:53;;;;;;;1.00;0.60;;;21.80;55.60;;;;;;4949897;28;20082;-68
2022/09/01 09:50:28;;;;;;;1.73;0.60;;;21.90;56.20;;;;;;4914285;28;20067;-68
2022/09/01 09:53:16;;;;;;;1.95;0.68;;;22.00;55.10;;;;;;4933856;28;20048;-68
2022/09/01 09:55:55;;;;;;;2.03;0.40;;;22.10;54.30;;;;;;4922264;28;20162;-68
2022/09/01 09:58:25;;;;;;;1.90;0.33;;;22.10;54.10;;;;;;4934625;28;20039;-68
2022/09/01 10:01:03;;;;;;;1.17;0.43;;;22.20;53.40;;;;;;4914797;28;20048;-68
2022/09/01 10:03:49;;;;;;;1.43;0.33;;;22.30;53.20;;;;;;4934563;28;20616;-68
2022/09/01 10:06:37;;;;;;;4.70;0.60;;;22.40;52.90;;;;;;4922883;28;20039;-68
2022/09/01 10:09:13;;;;;;;1.13;0.43;;;22.50;52.10;;;;;;4928317;28;20054;-68
2022/09/01 10:11:40;;;;;;;2.83;0.40;;;22.50;52.00;;;;;;4916519;28;20080;-68
2022/09/01 10:14:16;;;;;;;1.80;0.40;;;22.50;51.30;;;;;;4939470;29;20050;-68
2022/09/01 10:16:43;;;;;;;5.47;0.50;;;22.50;50.30;;;;;;4943348;28;20039;-68
2022/09/01 10:19:13;;;;;;;2.67;0.50;;;22.70;50.40;;;;;;4939752;28;20036;-69
2022/09/01 10:21:43;;;;;;;0.70;0.20;;;22.80;49.40;;;;;;4917747;28;20571;-68
2022/09/01 10:24:31;;;;;;;2.43;0.30;;;22.80;49.30;;;;;;4919161;28;20054;-68
2022/09/01 10:27:09;;;;;;;1.43;0.40;;;22.90;48.30;;;;;;4945316;29;20039;-68
2022/09/01 10:30:15;;;;;;;2.13;0.37;;;23.00;47.90;;;;;;4941877;28;20043;-68
2022/09/01 10:32:55;;;;;;;0.65;0.28;;;23.20;47.10;;;;;;4885032;29;20059;-68
2022/09/01 10:35:28;;;;;;;1.30;0.30;;;23.30;47.20;;;;;;4923713;29;20516;-68
2022/09/01 10:37:57;;;;;;;2.90;0.30;;;23.40;46.80;;;;;;4938963;29;20047;-69
2022/09/01 10:40:27;;;;;;;1.20;0.27;;;23.20;46.20;;;;;;4922015;29;20393;-69
2022/09/01 10:42:56;;;;;;;0.70;0.20;;;23.10;46.00;;;;;;4939669;29;20564;-69
2022/09/01 10:45:30;;;;;;;1.40;0.50;;;23.00;46.00;;;;;;4922661;29;20066;-68
2022/09/01 10:48:18;;;;;;;0.57;0.30;;;23.00;46.60;;;;;;4923325;29;20035;-68
2022/09/01 10:50:45;;;;;;;0.53;0.20;;;23.00;45.90;;;;;;4935143;28;20179;-68
2022/09/01 10:53:34;;;;;;;0.63;0.20;;;22.90;45.90;;;;;;4916484;29;20040;-68
2022/09/01 10:56:26;;;;;;;0.40;0.10;;;22.80;45.70;;;;;;4937689;29;20574;-68
2022/09/01 10:59:05;;;;;;;0.73;0.40;;;22.80;45.90;;;;;;4927998;28;20057;-68
2022/09/01 11:01:40;;;;;;;0.57;0.10;;;23.10;44.90;;;;;;4916914;29;20457;-69
2022/09/01 11:04:07;;;;;;;;;;;23.30;44.60;;;;;;4938571;29;20046;-69
2022/09/01 11:07:00;;;;;;;0.87;0.20;;;23.60;42.70;;;;;;4932508;29;19946;-69
2022/09/01 11:09:30;;;;;;;1.17;0.20;;;24.00;42.10;;;;;;4922752;29;20114;-69
2022/09/01 11:12:15;;;;;;;0.73;0.20;;;24.40;42.20;;;;;;4938197;29;20050;-69
2022/09/01 11:14:56;;;;;;;2.15;0.25;;;24.80;41.90;;;;;;4936487;29;20043;-69
2022/09/01 11:17:26;;;;;;;1.10;0.20;;;25.20;40.90;;;;;;4939231;29;20039;-69
2022/09/01 11:20:04;;;;;;;2.00;0.30;;;25.50;41.40;;;;;;4933616;28;20079;-69
2022/09/01 11:23:04;;;;;;;0.50;0.20;;;25.60;40.40;;;;;;4922959;29;20039;-69
2022/09/01 11:25:37;;;;;;;2.47;0.20;;;25.70;39.40;;;;;;4905943;28;20143;-69
2022/09/01 11:28:15;;;;;;;0.90;0.20;;;25.50;39.70;;;;;;4936311;28;20169;-69
2022/09/01 11:30:56;;;;;;;2.93;0.20;;;25.30;40.50;;;;;;4934251;28;20074;-69
2022/09/01 11:34:00;;;;;;;1.20;0.20;;;25.40;40.60;;;;;;4931019;28;20043;-69
2022/09/01 11:36:27;;;;;;;1.30;0.20;;;25.60;39.20;;;;;;4921198;29;20043;-69
2022/09/01 11:39:02;;;;;;;0.90;0.40;;;25.80;40.30;;;;;;4936442;29;20054;-68
2022/09/01 11:41:33;;;;;;;0.77;0.27;;;26.00;39.00;;;;;;4928613;29;20119;-68
2022/09/01 11:44:01;;;;;;;1.43;0.30;;;26.10;39.10;;;;;;4923168;29;20082;-69
2022/09/01 11:46:33;;;;;;;2.00;0.30;;;25.90;38.80;;;;;;4914356;29;20124;-69
2022/09/01 11:49:07;;;;;;;3.30;0.30;;;25.70;39.00;;;;;;4929690;28;20499;-69
2022/09/01 11:51:46;;;;;;;0.75;0.20;;;25.70;39.50;;;;;;4912341;29;20043;-70
2022/09/01 11:54:13;;;;;;;2.10;0.40;;;25.80;39.10;;;;;;4915496;28;20079;-70
2022/09/01 11:56:39;;;;;;;0.83;0.23;;;25.80;39.50;;;;;;4945888;28;20551;-69
2022/09/01 11:59:05;;;;;;;0.93;0.30;;;25.90;40.00;;;;;;4914598;29;20130;-69
2022/09/01 12:01:35;;;;;;;1.00;0.10;;;26.10;39.90;;;;;;4902887;29;20083;-69
2022/09/01 12:04:24;;;;;;;0.50;0.20;;;26.20;39.90;;;;;;4932089;29;20044;-69
2022/09/01 12:07:12;;;;;;;1.07;0.30;;;26.40;38.70;;;;;;4949350;29;20043;-69
2022/09/01 12:09:43;;;;;;;0.63;0.30;;;26.00;38.80;;;;;;4929442;29;20075;-68
2022/09/01 12:12:34;;;;;;;1.10;0.40;;;25.60;40.00;;;;;;4947249;29;20050;-70
2022/09/01 12:15:05;;;;;;;1.33;0.30;;;25.40;39.60;;;;;;4922374;29;20070;-69
2022/09/01 12:17:32;;;;;;;1.30;0.30;;;25.10;40.30;;;;;;4918126;29;20533;-69
2022/09/01 12:20:37;;;;;;;1.70;0.20;;;24.70;40.90;;;;;;4918810;29;20062;-69
2022/09/01 12:23:24;;;;;;;2.85;0.25;;;24.50;41.60;;;;;;4928923;29;20505;-69
2022/09/01 12:25:54;;;;;;;2.20;0.23;;;24.60;41.00;;;;;;4909937;29;20405;-70
2022/09/01 12:28:25;;;;;;;0.70;0.20;;;24.60;41.30;;;;;;4946416;28;20485;-69
2022/09/01 12:30:52;;;;;;;1.63;0.30;;;24.70;40.90;;;;;;4906023;29;20036;-69
2022/09/01 12:33:19;;;;;;;2.20;0.40;;;25.00;40.10;;;;;;4923231;29;20114;-70
2022/09/01 12:35:45;;;;;;;1.20;0.30;;;25.00;40.10;;;;;;4925642;29;20087;-68
2022/09/01 12:38:22;;;;;;;3.10;0.30;;;25.00;40.20;;;;;;4906862;29;20036;-69
2022/09/01 12:40:54;;;;;;;1.30;0.30;;;25.00;40.90;;;;;;4916761;29;20035;-69
2022/09/01 12:43:36;;;;;;;2.20;0.30;;;25.20;40.70;;;;;;4916045;29;20059;-69
2022/09/01 12:46:03;;;;;;;0.70;0.20;;;25.30;40.10;;;;;;4921458;29;20058;-69
2022/09/01 12:48:39;;;;;;;0.80;0.20;;;25.30;41.00;;;;;;4914884;29;20066;-68
2022/09/01 12:51:17;;;;;;;2.03;0.20;;;25.50;39.80;;;;;;4921078;29;20032;-69
2022/09/01 12:53:54;;;;;;;3.07;0.30;;;25.50;40.60;;;;;;4921430;29;20087;-69
2022/09/01 12:56:32;;;;;;;0.90;0.30;;;25.70;39.60;;;;;;4927654;29;20532;-68
2022/09/01 12:59:11;;;;;;;4.37;0.60;;;25.70;39.60;;;;;;4920655;28;20064;-69
2022/09/01 13:01:39;;;;;;;2.07;0.30;;;25.40;39.70;;;;;;4930585;28;20053;-70
2022/09/01 13:04:29;;;;;;;1.50;0.20;;;25.10;40.80;;;;;;4918193;28;20040;-69
2022/09/01 13:07:06;;;;;;;1.20;0.30;;;25.20;40.00;;;;;;4924345;28;20039;-69
2022/09/01 13:09:32;;;;;;;1.67;0.50;;;25.30;39.30;;;;;;4931924;28;20086;-69
2022/09/01 13:12:18;;;;;;;0.40;0.20;;;25.30;39.50;;;;;;4921347;28;20473;-69
2022/09/01 13:14:44;;;;;;;0.90;0.10;;;25.40;38.40;;;;;;4929702;28;20454;-69